Gogerbank, United Kingdom
Current Conditions -  °F | °C
As of 12:20 PM on Saturday 25 Oct 2014 (Local Time) from EGPH Reporting Station
Scattered Clouds Scattered Clouds  
Wind Chill: 55°   Ceiling: Unl
Heat Index: 55°   Visibility: 6mi
Dew Point: 46°   Wind: 28mph
Humidity: 72%   Direction: 230°SW
Pressure: 29.65"   Gusts: NA
Location:  55.92°N, 3.32°W
Report Text: EGPH 251120Z 23024KT 9999 FEW021 SCT028 13/08 Q1004
Loading
Personal Weather Stations






























Interactive Weather Map New forecast layout! Learn more

10-Day Weather Forecast

Advertisements
Track Severe Weather on mobile